Aviation Digital Data Service (ADDS)

Output produced by METARs form (0459 UTC 29 September 2016)
found at http://aviationweather.gov/adds/metars/
 
KEWR 290240Z 2903/3006 05013G20KT P6SM -DZ FEW009 OVC015 
     FM291400 06017G25KT P6SM -RA BKN015 OVC020 
     FM300300 04018G26KT P6SM -RA BKN015 OVC020